Time;durP1;ratioP1;P1;durP2;ratioP2;P2;SDS_P1;SDS_P2;PMS_P1;PMS_P2;Temp;Humidity;BMP_temperature;BMP_pressure;BME280_temperature;BME280_humidity;BME280_pressure;Samples;Min_cycle;Max_cycle;Signal;HPM_P1;HPM_P2
2022/06/04 00:00:34;;;;;;;0.40;0.40;;;16.30;99.90;;;;;;5051290;28;20190;-77
2022/06/04 00:02:59;;;;;;;0.40;0.40;;;16.30;99.90;;;;;;5051368;28;20256;-78
2022/06/04 00:05:29;;;;;;;0.30;0.30;;;16.20;99.90;;;;;;5051479;28;20175;-76
2022/06/04 00:07:56;;;;;;;0.30;0.30;;;16.20;95.80;;;;;;5051400;28;20175;-76
2022/06/04 00:16:00;;;;;;;0.40;0.40;;;16.00;99.90;;;;;;5051210;28;20214;-76
2022/06/04 00:18:26;;;;;;;0.37;0.37;;;16.00;99.90;;;;;;5051117;28;20644;-77
2022/06/04 00:20:53;;;;;;;0.40;0.40;;;15.90;99.90;;;;;;5050859;28;20190;-76
2022/06/04 00:23:20;;;;;;;0.40;0.40;;;15.90;99.90;;;;;;5051316;28;20706;-76
2022/06/04 00:25:49;;;;;;;0.40;0.40;;;15.90;99.90;;;;;;5051605;28;20183;-76
2022/06/04 00:28:16;;;;;;;0.40;0.40;;;15.90;99.90;;;;;;5048708;28;20283;-76
2022/06/04 00:30:42;;;;;;;0.30;0.30;;;15.90;99.90;;;;;;5034419;28;20264;-77
2022/06/04 00:33:08;;;;;;;0.30;0.30;;;15.80;99.90;;;;;;5035122;28;20215;-77
2022/06/04 00:35:34;;;;;;;0.30;0.30;;;15.80;99.90;;;;;;5035279;28;20261;-77
2022/06/04 00:38:01;;;;;;;0.30;0.30;;;15.80;99.90;;;;;;5034948;28;20180;-77
2022/06/04 00:40:53;;;;;;;0.30;0.30;;;15.80;99.90;;;;;;5034414;28;20584;-78
2022/06/04 00:43:20;;;;;;;0.30;0.30;;;15.70;99.90;;;;;;5034915;28;20180;-77
2022/06/04 00:46:10;;;;;;;0.30;0.30;;;15.60;99.90;;;;;;5034679;28;20207;-76
2022/06/04 00:48:36;;;;;;;0.30;0.30;;;15.60;99.90;;;;;;5034680;28;20183;-77
2022/06/04 00:51:04;;;;;;;0.40;0.40;;;15.50;99.90;;;;;;5034252;28;20200;-77
2022/06/04 00:53:30;;;;;;;0.30;0.30;;;15.50;99.90;;;;;;5035083;28;20184;-77
2022/06/04 00:56:14;;;;;;;0.30;0.30;;;15.50;99.90;;;;;;5034585;28;20223;-76
2022/06/04 00:59:04;;;;;;;0.40;0.40;;;15.50;99.90;;;;;;5034642;28;20581;-77
2022/06/04 01:01:40;;;;;;;0.40;0.40;;;15.50;99.90;;;;;;5034298;28;20589;-77
2022/06/04 01:07:19;;;;;;;0.43;0.43;;;15.50;99.90;;;;;;5054314;28;20174;-77
2022/06/04 01:10:07;;;;;;;0.40;0.40;;;15.50;99.90;;;;;;5053681;28;20643;-78
2022/06/04 01:13:20;;;;;;;0.40;0.40;;;15.50;99.90;;;;;;5054235;28;20199;-77
2022/06/04 01:16:11;;;;;;;0.30;0.30;;;15.50;99.90;;;;;;5007322;28;20222;-76
2022/06/04 01:19:16;;;;;;;0.30;0.30;;;15.50;99.90;;;;;;5054318;28;20187;-77
2022/06/04 01:22:08;;;;;;;0.40;0.40;;;15.50;99.90;;;;;;5060128;28;20209;-76
2022/06/04 01:25:04;;;;;;;0.30;0.30;;;15.40;99.90;;;;;;5057645;28;20206;-77
2022/06/04 01:27:43;;;;;;;0.40;0.40;;;15.30;99.90;;;;;;5065461;28;20716;-77
2022/06/04 01:30:20;;;;;;;0.37;0.37;;;15.30;99.90;;;;;;5073611;28;20178;-77
2022/06/04 01:32:58;;;;;;;0.40;0.40;;;15.30;99.90;;;;;;5073571;28;20269;-77
2022/06/04 01:35:36;;;;;;;0.30;0.30;;;15.30;99.90;;;;;;5073940;28;20220;-76
2022/06/04 01:38:17;;;;;;;0.30;0.30;;;15.30;99.90;;;;;;5073710;28;20185;-77
2022/06/04 01:41:04;;;;;;;0.30;0.30;;;15.20;99.90;;;;;;5072315;28;20178;-77
2022/06/04 01:43:39;;;;;;;0.30;0.30;;;15.20;99.90;;;;;;5070929;28;20186;-77
2022/06/04 01:46:30;;;;;;;0.30;0.30;;;15.10;99.90;;;;;;5065433;28;20235;-76
2022/06/04 01:48:59;;;;;;;0.40;0.40;;;15.10;99.90;;;;;;5073073;28;20261;-78
2022/06/04 01:51:28;;;;;;;0.33;0.33;;;15.10;99.90;;;;;;5073191;28;20511;-78
2022/06/04 01:54:00;;;;;;;0.40;0.40;;;15.10;99.90;;;;;;5073522;28;20654;-77
2022/06/04 01:56:31;;;;;;;0.37;0.37;;;15.10;99.90;;;;;;5073512;28;20233;-77
2022/06/04 01:59:05;;;;;;;0.40;0.40;;;15.10;99.90;;;;;;5073096;28;20716;-77
2022/06/04 02:01:32;;;;;;;0.40;0.40;;;15.10;99.90;;;;;;5073156;28;20480;-77
2022/06/04 02:04:12;;;;;;;0.40;0.40;;;15.00;99.90;;;;;;5073108;28;20261;-78
2022/06/04 02:06:43;;;;;;;0.40;0.40;;;15.00;99.90;;;;;;5073343;28;20717;-77
2022/06/04 02:09:16;;;;;;;0.30;0.30;;;14.90;99.90;;;;;;5072894;28;20244;-77
2022/06/04 02:11:50;;;;;;;0.40;0.40;;;14.90;99.90;;;;;;5073851;28;20566;-77
2022/06/04 02:14:16;;;;;;;0.50;0.50;;;14.90;99.90;;;;;;5073677;28;20205;-77
2022/06/04 02:16:58;;;;;;;0.30;0.30;;;14.90;99.90;;;;;;5073051;28;20214;-78
2022/06/04 02:19:24;;;;;;;0.40;0.40;;;14.80;99.90;;;;;;5072557;28;20176;-78
2022/06/04 02:21:49;;;;;;;0.40;0.40;;;14.70;99.90;;;;;;5072978;28;20561;-76
2022/06/04 02:24:15;;;;;;;0.40;0.40;;;14.70;99.90;;;;;;5072984;28;20202;-77
2022/06/04 02:26:41;;;;;;;0.37;0.37;;;14.70;99.90;;;;;;5073794;28;20177;-77
2022/06/04 02:29:07;;;;;;;0.40;0.40;;;14.70;99.90;;;;;;5075477;28;20190;-78
2022/06/04 02:31:47;;;;;;;0.40;0.40;;;14.70;99.90;;;;;;5074574;28;20679;-77
2022/06/04 02:34:34;;;;;;;0.30;0.30;;;14.70;99.90;;;;;;5074487;28;20235;-76
2022/06/04 02:37:09;;;;;;;0.40;0.40;;;14.70;99.90;;;;;;5074599;28;20623;-77
2022/06/04 02:39:59;;;;;;;0.30;0.30;;;14.70;99.90;;;;;;5075436;28;20368;-77
2022/06/04 02:42:34;;;;;;;0.33;0.33;;;14.60;99.90;;;;;;5073979;28;20209;-78
2022/06/04 02:45:33;;;;;;;0.40;0.40;;;14.60;99.90;;;;;;5053324;28;20184;-77
2022/06/04 02:48:12;;;;;;;0.30;0.30;;;14.60;99.90;;;;;;5062506;28;20741;-77
2022/06/04 02:50:42;;;;;;;0.40;0.40;;;14.50;99.90;;;;;;5075953;28;20179;-77
2022/06/04 02:53:10;;;;;;;0.30;0.30;;;14.50;99.90;;;;;;5073143;28;20194;-78
2022/06/04 02:56:06;;;;;;;0.37;0.37;;;14.50;99.90;;;;;;5087089;28;20221;-78
2022/06/04 02:58:34;;;;;;;0.40;0.40;;;14.50;99.90;;;;;;5060634;28;20194;-77
2022/06/04 03:01:03;;;;;;;0.30;0.30;;;14.50;99.90;;;;;;5068766;28;20178;-77
2022/06/04 03:03:28;;;;;;;0.40;0.40;;;14.50;99.90;;;;;;5071760;28;20183;-78
2022/06/04 03:06:01;;;;;;;0.40;0.40;;;14.50;99.90;;;;;;5075950;28;20199;-78
2022/06/04 03:08:30;;;;;;;0.40;0.40;;;14.50;99.90;;;;;;5072618;28;20185;-77
2022/06/04 03:10:55;;;;;;;0.40;0.40;;;14.50;99.90;;;;;;5053372;28;20198;-77
2022/06/04 03:13:21;;;;;;;0.40;0.40;;;14.50;99.90;;;;;;5060701;28;20689;-77
2022/06/04 03:15:47;;;;;;;0.43;0.43;;;14.50;99.90;;;;;;5064724;28;20205;-77
2022/06/04 03:18:14;;;;;;;0.40;0.40;;;14.50;99.90;;;;;;5073406;28;20174;-77
2022/06/04 03:20:39;;;;;;;0.30;0.30;;;14.50;99.90;;;;;;5073034;28;20255;-77
2022/06/04 03:23:06;;;;;;;0.40;0.40;;;14.50;99.90;;;;;;5073289;28;20187;-77
2022/06/04 03:25:33;;;;;;;0.43;0.43;;;14.50;99.90;;;;;;5074189;28;20186;-77
2022/06/04 03:27:59;;;;;;;0.30;0.30;;;14.50;99.90;;;;;;5070449;28;20822;-77
2022/06/04 03:30:26;;;;;;;0.40;0.40;;;14.40;99.90;;;;;;5060283;28;20182;-77
2022/06/04 03:32:52;;;;;;;0.40;0.40;;;14.30;99.90;;;;;;5072135;28;20202;-77
2022/06/04 03:35:17;;;;;;;0.30;0.30;;;14.30;99.90;;;;;;5071948;28;20206;-76
2022/06/04 03:37:43;;;;;;;0.30;0.30;;;14.30;99.90;;;;;;5075282;28;20174;-77
2022/06/04 03:40:09;;;;;;;0.30;0.30;;;14.30;99.90;;;;;;5076657;28;20182;-78
2022/06/04 03:42:34;;;;;;;0.40;0.40;;;14.30;99.90;;;;;;5076222;28;20220;-77
2022/06/04 03:45:00;;;;;;;0.40;0.40;;;14.30;99.90;;;;;;5074550;28;20182;-77
2022/06/04 03:47:26;;;;;;;0.40;0.40;;;14.30;99.90;;;;;;5074177;28;20175;-76
2022/06/04 03:49:52;;;;;;;0.40;0.40;;;14.30;99.90;;;;;;5072611;28;20179;-77
2022/06/04 03:52:17;;;;;;;0.40;0.40;;;14.40;99.90;;;;;;5072808;28;20193;-76
2022/06/04 03:54:52;;;;;;;0.30;0.30;;;14.50;99.90;;;;;;5072821;28;20213;-77
2022/06/04 04:00:14;;;;;;;0.40;0.40;;;14.80;99.90;;;;;;5076721;28;20180;-77
2022/06/04 04:02:41;;;;;;;0.30;0.30;;;14.90;99.90;;;;;;5076157;28;20186;-77
2022/06/04 04:05:10;;;;;;;0.40;0.40;;;15.10;99.90;;;;;;5079559;28;20177;-77
2022/06/04 04:07:36;;;;;;;0.30;0.30;;;15.10;99.90;;;;;;5077979;28;20635;-77
2022/06/04 04:10:03;;;;;;;0.30;0.30;;;15.20;99.90;;;;;;5078663;28;20261;-78
2022/06/04 04:12:29;;;;;;;0.50;0.50;;;15.30;99.90;;;;;;5082895;28;20195;-77
2022/06/04 04:14:55;;;;;;;0.30;0.30;;;15.30;99.90;;;;;;5084769;28;20652;-77
2022/06/04 04:17:22;;;;;;;0.30;0.30;;;15.40;99.90;;;;;;5086384;28;20182;-78
2022/06/04 04:19:48;;;;;;;0.40;0.40;;;15.40;99.90;;;;;;5089184;28;20174;-77
2022/06/04 04:22:13;;;;;;;0.40;0.40;;;15.50;99.90;;;;;;5089453;28;20558;-78
2022/06/04 04:24:39;;;;;;;0.40;0.40;;;15.50;99.90;;;;;;5079828;28;20556;-76
2022/06/04 04:27:05;;;;;;;0.40;0.40;;;15.50;99.90;;;;;;5078556;28;20198;-77
2022/06/04 04:29:30;;;;;;;0.40;0.40;;;15.50;99.90;;;;;;5080393;28;20261;-77
2022/06/04 04:31:56;;;;;;;0.30;0.30;;;15.50;99.90;;;;;;5080825;28;20220;-77
2022/06/04 04:34:21;;;;;;;0.40;0.40;;;15.50;99.90;;;;;;5082517;28;20206;-77
2022/06/04 04:36:47;;;;;;;0.40;0.40;;;15.70;99.90;;;;;;5082506;28;20216;-77
2022/06/04 04:39:12;;;;;;;0.40;0.40;;;15.80;99.90;;;;;;5082131;28;20166;-77
2022/06/04 04:41:38;;;;;;;0.50;0.50;;;16.00;99.90;;;;;;5081808;28;20261;-77
2022/06/04 04:44:04;;;;;;;0.40;0.40;;;16.20;99.90;;;;;;5081806;28;20690;-76
2022/06/04 04:46:29;;;;;;;0.30;0.30;;;16.30;99.90;;;;;;5081104;28;20209;-77
2022/06/04 04:48:55;;;;;;;0.40;0.40;;;16.40;99.90;;;;;;5083606;28;20266;-77
2022/06/04 04:51:23;;;;;;;0.40;0.40;;;16.70;99.90;;;;;;5083979;28;20212;-77
2022/06/04 04:53:50;;;;;;;0.33;0.33;;;16.90;99.90;;;;;;5083158;28;20179;-77
2022/06/04 04:56:18;;;;;;;0.30;0.30;;;17.30;99.90;;;;;;5082327;28;20216;-77
2022/06/04 04:58:44;;;;;;;0.43;0.43;;;17.70;85.40;;;;;;5082412;28;20230;-78
2022/06/04 05:01:17;;;;;;;0.40;0.40;;;18.10;36.00;;;;;;5081082;28;20202;-79
2022/06/04 05:03:44;;;;;;;0.37;0.37;;;18.40;1.00;;;;;;5083412;28;20170;-78
2022/06/04 05:06:11;;;;;;;0.47;0.47;;;18.50;1.00;;;;;;5086180;28;20175;-76
2022/06/04 05:08:37;;;;;;;0.47;0.47;;;18.60;1.00;;;;;;5086361;28;20170;-77
2022/06/04 05:11:18;;;;;;;0.40;0.40;;;18.60;1.00;;;;;;5081611;28;20672;-77
2022/06/04 05:13:49;;;;;;;0.40;0.40;;;18.40;1.00;;;;;;5064941;28;20175;-77
2022/06/04 05:16:22;;;;;;;0.30;0.30;;;18.00;1.00;;;;;;5038206;28;20223;-77
2022/06/04 05:18:48;;;;;;;0.30;0.30;;;17.80;1.00;;;;;;5041952;28;20176;-78
2022/06/04 05:21:26;;;;;;;0.33;0.33;;;17.50;24.00;;;;;;5043649;28;20203;-77
2022/06/04 05:23:54;;;;;;;0.30;0.30;;;17.40;71.50;;;;;;5041922;28;20251;-77
2022/06/04 05:26:21;;;;;;;0.30;0.30;;;17.30;87.20;;;;;;5038118;28;20186;-73
2022/06/04 05:28:47;;;;;;;0.40;0.40;;;17.30;99.90;;;;;;5033924;28;20192;-75
2022/06/04 05:31:13;;;;;;;0.40;0.40;;;17.40;99.90;;;;;;5042957;28;20741;-76
2022/06/04 05:33:39;;;;;;;0.30;0.30;;;17.40;99.90;;;;;;5054088;28;20175;-74
2022/06/04 05:36:05;;;;;;;0.30;0.30;;;17.50;99.90;;;;;;5056472;28;20256;-75
2022/06/04 05:38:34;;;;;;;0.30;0.30;;;17.50;99.90;;;;;;5065556;28;20177;-75
2022/06/04 05:41:02;;;;;;;0.40;0.40;;;17.50;99.90;;;;;;5073335;28;20635;-75
2022/06/04 05:43:28;;;;;;;0.40;0.40;;;17.60;99.90;;;;;;5073962;28;20178;-75
2022/06/04 05:46:00;;;;;;;0.33;0.33;;;17.60;99.90;;;;;;5074461;28;20647;-78
2022/06/04 05:48:26;;;;;;;0.30;0.30;;;17.60;99.90;;;;;;5075143;28;20643;-77
2022/06/04 05:50:53;;;;;;;0.30;0.30;;;17.60;99.90;;;;;;5073119;28;20209;-74
2022/06/04 05:53:19;;;;;;;0.30;0.30;;;17.60;99.90;;;;;;5055801;28;20167;-75
2022/06/04 05:55:44;;;;;;;0.30;0.30;;;17.50;99.90;;;;;;5061781;28;20299;-74
2022/06/04 05:58:10;;;;;;;0.30;0.30;;;17.40;99.90;;;;;;5067689;28;20205;-73
2022/06/04 06:00:36;;;;;;;0.40;0.40;;;17.30;99.90;;;;;;5073013;28;20683;-75
2022/06/04 06:03:01;;;;;;;0.40;0.40;;;17.30;99.90;;;;;;5073461;28;20187;-74
2022/06/04 06:05:27;;;;;;;0.37;0.37;;;17.30;99.90;;;;;;5073421;28;20670;-73
2022/06/04 06:07:53;;;;;;;0.30;0.30;;;17.30;99.90;;;;;;5073490;28;20192;-74
2022/06/04 06:10:20;;;;;;;0.30;0.30;;;17.40;99.90;;;;;;5072230;28;20552;-74
2022/06/04 06:12:46;;;;;;;0.30;0.30;;;17.50;99.90;;;;;;5058533;28;20699;-74
2022/06/04 06:15:12;;;;;;;0.37;0.37;;;17.70;99.90;;;;;;5063707;28;20302;-75
2022/06/04 06:17:40;;;;;;;0.40;0.40;;;17.80;99.90;;;;;;5046197;28;20175;-76
2022/06/04 06:20:06;;;;;;;0.30;0.30;;;17.90;99.90;;;;;;5044656;28;20183;-76
2022/06/04 06:22:32;;;;;;;0.40;0.40;;;17.90;99.90;;;;;;5048086;28;20245;-75
2022/06/04 06:24:58;;;;;;;0.40;0.40;;;17.90;99.90;;;;;;5056276;28;20210;-77
2022/06/04 06:27:24;;;;;;;0.33;0.33;;;17.90;99.90;;;;;;5064610;28;20245;-76
2022/06/04 06:29:49;;;;;;;0.30;0.30;;;17.80;99.90;;;;;;5072452;28;20188;-74
2022/06/04 06:32:15;;;;;;;0.40;0.40;;;17.60;99.90;;;;;;5055466;28;20204;-76
2022/06/04 06:34:40;;;;;;;0.40;0.40;;;17.40;99.90;;;;;;5061114;28;20232;-73
2022/06/04 06:37:06;;;;;;;0.30;0.30;;;17.30;99.90;;;;;;5066899;28;20266;-75
2022/06/04 06:39:32;;;;;;;0.30;0.30;;;17.30;99.90;;;;;;5052825;28;20179;-76
2022/06/04 06:41:57;;;;;;;0.30;0.30;;;17.20;99.90;;;;;;5053056;28;20665;-74
2022/06/04 06:44:23;;;;;;;0.37;0.37;;;17.20;99.90;;;;;;5052542;28;20187;-74
2022/06/04 06:46:49;;;;;;;0.30;0.30;;;17.30;99.90;;;;;;5072234;28;20644;-76
2022/06/04 06:49:19;;;;;;;0.40;0.40;;;17.30;99.90;;;;;;5072235;28;20655;-77
2022/06/04 06:51:56;;;;;;;0.40;0.40;;;17.40;99.90;;;;;;5072737;28;20199;-76
2022/06/04 06:54:24;;;;;;;0.30;0.30;;;17.50;99.90;;;;;;5065777;28;20646;-76
2022/06/04 06:56:50;;;;;;;0.30;0.30;;;17.50;99.90;;;;;;5056292;28;20218;-75
2022/06/04 06:59:20;;;;;;;0.37;0.37;;;17.70;99.90;;;;;;5040678;28;20194;-77
2022/06/04 07:01:46;;;;;;;0.40;0.40;;;17.70;99.90;;;;;;5036701;28;20196;-76
2022/06/04 07:04:12;;;;;;;0.30;0.30;;;17.80;99.90;;;;;;5040776;28;20798;-75
2022/06/04 07:06:40;;;;;;;0.37;0.37;;;17.90;99.90;;;;;;5042563;28;20179;-75
2022/06/04 07:09:13;;;;;;;0.40;0.40;;;18.00;99.90;;;;;;5062242;28;20349;-76
2022/06/04 07:11:39;;;;;;;0.30;0.30;;;18.00;99.90;;;;;;5053198;28;20188;-76
2022/06/04 07:14:04;;;;;;;0.40;0.40;;;18.10;99.90;;;;;;5032433;28;20641;-76
2022/06/04 07:16:30;;;;;;;0.30;0.30;;;18.20;99.90;;;;;;5032142;28;20719;-75
2022/06/04 07:18:56;;;;;;;0.50;0.50;;;18.20;99.90;;;;;;5032075;28;20259;-75
2022/06/04 07:21:21;;;;;;;0.30;0.30;;;18.30;99.90;;;;;;5031974;28;20713;-74
2022/06/04 07:23:47;;;;;;;0.30;0.30;;;18.40;99.90;;;;;;5037063;28;20178;-76
2022/06/04 07:26:13;;;;;;;0.30;0.30;;;18.40;99.90;;;;;;5053604;28;20546;-76
2022/06/04 07:28:46;;;;;;;0.40;0.40;;;18.50;99.90;;;;;;5045028;28;20230;-80
2022/06/04 07:31:15;;;;;;;0.33;0.33;;;18.60;99.90;;;;;;5060278;28;20194;-77
2022/06/04 07:33:45;;;;;;;0.30;0.30;;;18.70;99.90;;;;;;5045922;28;20226;-76
2022/06/04 07:36:16;;;;;;;0.40;0.40;;;18.80;99.90;;;;;;5035174;28;20306;-75
2022/06/04 07:38:42;;;;;;;0.30;0.30;;;18.90;99.90;;;;;;5043400;28;20178;-74
2022/06/04 07:41:08;;;;;;;0.33;0.33;;;19.10;99.90;;;;;;5035150;28;20599;-75
2022/06/04 07:43:33;;;;;;;0.30;0.30;;;19.30;99.90;;;;;;5057818;28;20262;-75
2022/06/04 07:45:59;;;;;;;0.30;0.30;;;19.40;99.90;;;;;;5059137;28;20172;-75
2022/06/04 07:48:25;;;;;;;0.40;0.40;;;19.50;99.90;;;;;;5044067;28;20385;-75
2022/06/04 07:50:51;;;;;;;0.30;0.30;;;19.70;99.90;;;;;;5040712;28;20191;-75
2022/06/04 07:53:16;;;;;;;0.30;0.30;;;19.80;99.90;;;;;;5056451;28;20179;-76
2022/06/04 07:55:42;;;;;;;0.37;0.37;;;19.90;99.90;;;;;;5034987;28;20211;-76
2022/06/04 07:58:09;;;;;;;0.40;0.40;;;20.00;99.90;;;;;;5043999;28;20731;-76
2022/06/04 08:00:38;;;;;;;0.30;0.30;;;20.20;99.90;;;;;;5050780;28;20189;-76
2022/06/04 08:03:05;;;;;;;0.30;0.30;;;20.40;99.90;;;;;;5053363;28;20201;-75
2022/06/04 08:05:31;;;;;;;0.30;0.30;;;20.80;99.90;;;;;;5051040;28;20187;-75
2022/06/04 08:07:56;;;;;;;0.40;0.40;;;21.00;99.90;;;;;;5048984;28;20179;-76
2022/06/04 08:10:22;;;;;;;0.30;0.30;;;21.00;99.90;;;;;;5044508;28;20215;-76
2022/06/04 08:12:52;;;;;;;0.30;0.30;;;21.00;12.70;;;;;;5068717;28;20671;-74
2022/06/04 08:15:18;;;;;;;0.30;0.30;;;21.00;93.70;;;;;;5044812;28;20206;-76
2022/06/04 08:17:47;;;;;;;0.30;0.30;;;21.60;79.30;;;;;;5055104;28;20519;-75
2022/06/04 08:20:13;;;;;;;0.40;0.40;;;22.20;1.00;;;;;;5050163;28;20187;-75
2022/06/04 08:22:40;;;;;;;0.40;0.40;;;22.50;1.00;;;;;;5060199;28;20253;-76
2022/06/04 08:25:05;;;;;;;0.30;0.30;;;22.60;1.00;;;;;;5062682;28;20174;-74
2022/06/04 08:27:31;;;;;;;0.40;0.40;;;22.40;1.00;;;;;;5055658;28;20206;-75
2022/06/04 08:29:57;;;;;;;0.20;0.20;;;22.00;1.00;;;;;;5034480;28;20553;-75
2022/06/04 08:32:22;;;;;;;0.30;0.30;;;21.80;1.00;;;;;;5047717;28;20222;-75
2022/06/04 08:34:48;;;;;;;0.30;0.30;;;21.70;1.00;;;;;;5061860;28;20187;-76
2022/06/04 08:37:13;;;;;;;0.40;0.40;;;21.90;1.00;;;;;;5058145;28;20183;-75
2022/06/04 08:39:39;;;;;;;0.30;0.30;;;22.60;1.00;;;;;;5033834;28;20517;-74
2022/06/04 08:42:10;;;;;;;0.30;0.30;;;22.80;1.00;;;;;;5047505;28;20267;-76
2022/06/04 08:44:44;;;;;;;0.30;0.30;;;23.30;1.00;;;;;;5039059;28;20203;-75
2022/06/04 08:47:13;;;;;;;0.37;0.37;;;23.60;99.90;;;;;;5038765;28;20206;-74
2022/06/04 08:49:53;;;;;;;0.20;0.20;;;23.80;99.90;;;;;;5048906;28;20197;-76
2022/06/04 08:52:23;;;;;;;0.33;0.33;;;24.10;1.00;;;;;;5039944;28;20805;-75
2022/06/04 08:58:06;;;;;;;0.20;0.20;;;23.70;99.90;;;;;;5050563;28;20229;-76
2022/06/04 09:00:47;;;;;;;0.40;0.40;;;23.30;99.90;;;;;;5037504;28;20244;-74
2022/06/04 09:03:23;;;;;;;0.30;0.30;;;22.90;99.90;;;;;;5060059;28;20179;-77
2022/06/04 09:06:10;;;;;;;0.37;0.37;;;23.20;1.00;;;;;;5065466;28;20643;-77
2022/06/04 09:09:00;;;;;;;0.30;0.30;;;23.70;99.90;;;;;;5045293;28;20544;-77
2022/06/04 09:11:48;;;;;;;0.47;0.47;;;24.10;1.00;;;;;;5041364;28;20211;-77
2022/06/04 09:14:40;;;;;;;0.20;0.20;;;24.10;1.00;;;;;;5053499;28;20214;-76
2022/06/04 09:17:11;;;;;;;0.30;0.30;;;24.00;1.00;;;;;;5054391;28;20206;-76
2022/06/04 09:19:40;;;;;;;0.30;0.30;;;23.40;1.00;;;;;;5040809;28;20187;-76
2022/06/04 09:22:23;;;;;;;0.30;0.30;;;23.10;1.00;;;;;;5041941;28;20203;-77
2022/06/04 09:24:49;;;;;;;0.37;0.37;;;22.80;99.90;;;;;;5050546;28;20190;-75
2022/06/04 09:27:39;;;;;;;0.40;0.40;;;22.50;1.00;;;;;;5044325;28;20179;-76
2022/06/04 09:30:25;;;;;;;0.50;0.50;;;22.40;1.00;;;;;;5054275;28;20178;-76
2022/06/04 09:33:08;;;;;;;0.47;0.47;;;22.80;1.00;;;;;;5051925;28;20638;-75
2022/06/04 09:35:40;;;;;;;0.30;0.30;;;23.40;1.00;;;;;;5045039;28;20211;-75
2022/06/04 09:38:27;;;;;;;0.50;0.50;;;24.20;1.00;;;;;;5046997;28;20655;-76
2022/06/04 09:41:04;;;;;;;0.40;0.40;;;25.00;99.90;;;;;;5048249;28;20180;-76
2022/06/04 09:43:30;;;;;;;0.50;0.50;;;25.60;1.00;;;;;;5046788;28;20214;-76
2022/06/04 09:46:00;;;;;;;0.40;0.40;;;25.90;1.00;;;;;;5060617;28;20166;-76
2022/06/04 09:48:30;;;;;;;0.50;0.50;;;25.90;1.00;;;;;;5050030;28;20640;-74
2022/06/04 09:51:00;;;;;;;0.30;0.30;;;26.00;1.00;;;;;;5055857;28;20216;-78
2022/06/04 09:53:29;;;;;;;0.30;0.30;;;26.40;1.00;;;;;;5047406;28;20250;-83
2022/06/04 09:56:28;;;;;;;0.50;0.50;;;26.60;99.90;;;;;;5048809;28;20297;-77
2022/06/04 09:58:53;;;;;;;0.30;0.30;;;26.50;1.00;;;;;;5014999;28;20541;-79
2022/06/04 10:01:19;;;;;;;0.40;0.40;;;26.00;1.00;;;;;;5048185;28;20203;-77
2022/06/04 10:03:58;;;;;;;0.50;0.50;;;25.30;54.00;;;;;;5064534;28;20625;-79
2022/06/04 10:06:25;;;;;;;0.43;0.43;;;24.50;99.90;;;;;;5060589;28;20187;-78
2022/06/04 10:11:49;;;;;;;0.30;0.30;;;23.80;99.90;;;;;;5053193;28;20229;-79
2022/06/04 10:14:15;;;;;;;0.50;0.50;;;23.50;99.90;;;;;;5050992;28;20179;-79
2022/06/04 10:16:44;;;;;;;0.37;0.37;;;23.30;1.00;;;;;;5058590;28;20210;-76
2022/06/04 10:19:12;;;;;;;0.40;0.40;;;23.20;1.00;;;;;;5062405;28;20172;-80
2022/06/04 10:21:41;;;;;;;0.40;0.40;;;22.90;99.90;;;;;;5072605;28;20679;-79
2022/06/04 10:24:31;;;;;;;0.30;0.30;;;22.80;99.90;;;;;;5062004;28;20172;-80
2022/06/04 10:27:21;;;;;;;0.30;0.30;;;22.90;32.50;;;;;;5064690;28;20162;-78
2022/06/04 10:29:54;;;;;;;0.30;0.30;;;22.90;1.00;;;;;;5074723;28;20199;-79
2022/06/04 10:32:36;;;;;;;0.30;0.30;;;22.90;99.90;;;;;;5076465;28;20217;-78
2022/06/04 10:35:34;;;;;;;0.30;0.30;;;22.90;99.90;;;;;;5079270;28;20202;-79
2022/06/04 10:38:36;;;;;;;0.30;0.30;;;22.80;1.00;;;;;;5070787;28;20650;-78
2022/06/04 10:41:32;;;;;;;0.40;0.40;;;22.70;1.00;;;;;;5072363;28;20185;-75
2022/06/04 10:44:22;;;;;;;0.30;0.30;;;22.50;1.00;;;;;;5035609;28;20602;-77
2022/06/04 10:46:53;;;;;;;0.40;0.40;;;22.50;8.10;;;;;;5034642;28;20636;-78
2022/06/04 10:49:52;;;;;;;0.30;0.30;;;22.20;1.00;;;;;;5036289;28;20183;-80
2022/06/04 10:52:26;;;;;;;0.30;0.30;;;22.00;68.10;;;;;;5035479;28;20210;-79
2022/06/04 10:55:16;;;;;;;0.30;0.30;;;21.50;99.90;;;;;;5043295;28;20197;-79
2022/06/04 10:57:52;;;;;;;0.23;0.23;;;21.10;99.90;;;;;;5050277;28;20645;-77
2022/06/04 11:00:26;;;;;;;0.40;0.40;;;20.90;99.90;;;;;;5061935;28;20182;-78
2022/06/04 11:03:11;;;;;;;0.33;0.33;;;20.80;99.90;;;;;;5049897;28;20683;-77
2022/06/04 11:05:43;;;;;;;0.30;0.30;;;20.70;99.90;;;;;;5057668;28;20215;-77
2022/06/04 11:08:26;;;;;;;0.30;0.30;;;20.70;99.90;;;;;;5053638;28;20186;-80
2022/06/04 11:10:58;;;;;;;0.33;0.33;;;20.60;99.90;;;;;;5044132;28;20205;-77
2022/06/04 11:13:42;;;;;;;0.30;0.30;;;20.40;99.90;;;;;;5056415;28;20209;-77
2022/06/04 11:16:14;;;;;;;0.30;0.30;;;20.40;99.90;;;;;;5060124;28;20214;-77
2022/06/04 11:18:50;;;;;;;0.20;0.20;;;20.40;99.90;;;;;;5052098;28;20164;-78
2022/06/04 11:21:23;;;;;;;0.30;0.30;;;20.50;99.90;;;;;;5057437;28;20549;-78
2022/06/04 11:23:58;;;;;;;0.30;0.30;;;20.60;99.90;;;;;;5064849;28;20209;-79
2022/06/04 11:26:44;;;;;;;0.30;0.30;;;20.70;99.90;;;;;;5062320;28;20206;-78
2022/06/04 11:29:14;;;;;;;0.20;0.20;;;20.80;99.90;;;;;;5049305;28;20195;-79
2022/06/04 11:32:04;;;;;;;0.30;0.30;;;20.90;99.90;;;;;;5035095;28;20204;-78
2022/06/04 11:34:58;;;;;;;0.20;0.20;;;21.00;99.90;;;;;;5034451;28;20294;-80
2022/06/04 11:37:40;;;;;;;0.30;0.30;;;21.20;99.90;;;;;;5059215;28;20186;-78
2022/06/04 11:40:18;;;;;;;0.30;0.30;;;21.30;99.90;;;;;;5043404;28;20179;-77
2022/06/04 11:42:55;;;;;;;0.37;0.37;;;21.40;99.90;;;;;;5062087;28;20551;-77
2022/06/04 11:45:40;;;;;;;0.33;0.33;;;21.60;99.90;;;;;;5053195;28;20174;-78
2022/06/04 11:48:24;;;;;;;0.30;0.30;;;21.80;99.90;;;;;;5053590;28;20186;-77
2022/06/04 11:50:53;;;;;;;0.40;0.40;;;22.20;99.90;;;;;;5051899;28;20678;-78
2022/06/04 11:53:24;;;;;;;0.30;0.30;;;22.40;99.90;;;;;;5064729;28;20201;-78
2022/06/04 11:56:15;;;;;;;0.30;0.30;;;22.60;99.90;;;;;;5061589;28;20267;-79
2022/06/04 11:59:17;;;;;;;0.30;0.30;;;22.60;47.60;;;;;;5055403;28;20715;-78
2022/06/04 12:01:58;;;;;;;0.40;0.40;;;22.60;54.30;;;;;;5050155;28;20202;-77
2022/06/04 12:04:39;;;;;;;0.30;0.30;;;22.50;99.90;;;;;;5044244;28;20175;-79
2022/06/04 12:07:18;;;;;;;0.40;0.40;;;22.60;95.60;;;;;;5040334;28;20537;-78
2022/06/04 12:09:57;;;;;;;0.30;0.30;;;22.70;58.50;;;;;;5032435;28;20172;-78
2022/06/04 12:12:42;;;;;;;0.30;0.30;;;22.60;80.80;;;;;;5036819;28;20229;-78
2022/06/04 12:15:34;;;;;;;0.50;0.50;;;22.60;31.40;;;;;;5054108;28;20171;-79
2022/06/04 12:18:16;;;;;;;0.40;0.40;;;22.60;1.00;;;;;;5052164;28;20178;-79
2022/06/04 12:26:23;;;;;;;0.30;0.30;;;22.70;1.00;;;;;;5064123;28;20652;-79
2022/06/04 12:28:49;;;;;;;0.30;0.30;;;22.70;1.00;;;;;;5075770;28;20186;-78
2022/06/04 12:31:42;;;;;;;0.30;0.30;;;22.70;31.20;;;;;;5075974;28;20186;-77
2022/06/04 12:34:30;;;;;;;0.40;0.40;;;22.70;1.00;;;;;;5077119;28;20171;-78
2022/06/04 12:36:57;;;;;;;0.37;0.37;;;22.70;1.00;;;;;;5075484;28;20228;-80
2022/06/04 12:39:52;;;;;;;0.37;0.37;;;22.80;1.00;;;;;;5074676;28;20223;-78
2022/06/04 12:42:24;;;;;;;0.40;0.40;;;23.00;1.00;;;;;;5057596;28;20694;-77
2022/06/04 12:45:02;;;;;;;0.30;0.30;;;23.30;1.00;;;;;;5075963;28;20178;-77
2022/06/04 12:47:34;;;;;;;0.30;0.30;;;23.60;1.00;;;;;;5075008;28;20178;-78
2022/06/04 12:50:05;;;;;;;0.40;0.40;;;23.80;99.90;;;;;;5074689;28;20274;-78
2022/06/04 12:52:37;;;;;;;0.30;0.30;;;24.00;1.00;;;;;;5074749;28;20248;-77
2022/06/04 12:55:14;;;;;;;0.30;0.30;;;24.20;99.90;;;;;;5071442;28;20187;-77
2022/06/04 12:57:45;;;;;;;0.30;0.30;;;24.40;99.90;;;;;;5066540;28;20167;-77
2022/06/04 13:00:13;;;;;;;0.40;0.40;;;24.90;1.00;;;;;;5067732;28;20186;-76
2022/06/04 13:02:43;;;;;;;0.30;0.30;;;25.20;1.00;;;;;;5056043;28;20194;-77
2022/06/04 13:05:21;;;;;;;0.30;0.30;;;25.30;99.90;;;;;;5069097;28;20174;-77
2022/06/04 13:07:49;;;;;;;0.30;0.30;;;25.40;1.00;;;;;;5068271;28;20194;-81
2022/06/04 13:10:22;;;;;;;0.30;0.30;;;25.80;1.00;;;;;;5068309;28;20178;-81
2022/06/04 13:13:03;;;;;;;0.30;0.30;;;26.00;1.00;;;;;;5069136;28;20199;-79
2022/06/04 13:15:44;;;;;;;0.37;0.37;;;26.10;99.90;;;;;;5077507;28;20245;-78
2022/06/04 13:18:24;;;;;;;0.30;0.30;;;26.20;99.90;;;;;;5076630;28;20182;-76
2022/06/04 13:21:15;;;;;;;0.30;0.30;;;26.40;1.00;;;;;;5072305;28;20197;-78
2022/06/04 13:23:45;;;;;;;0.40;0.40;;;26.40;99.90;;;;;;5049739;28;20182;-77
2022/06/04 13:26:45;;;;;;;0.30;0.30;;;26.30;1.00;;;;;;5053579;28;20570;-79
2022/06/04 13:29:29;;;;;;;0.33;0.33;;;26.20;99.90;;;;;;5063732;28;20686;-79
2022/06/04 13:31:59;;;;;;;0.40;0.40;;;26.40;21.60;;;;;;5074516;28;20201;-76
2022/06/04 13:34:27;;;;;;;0.30;0.30;;;26.50;1.00;;;;;;5074279;28;20575;-77
2022/06/04 13:37:05;;;;;;;0.40;0.40;;;26.70;1.00;;;;;;5073244;28;20224;-77
2022/06/04 13:39:33;;;;;;;0.40;0.40;;;26.60;99.90;;;;;;5073548;28;20182;-78